Accueil
METAR-TAF:

METAR-TAF

Aéroports :

Saint-Dizier, France

Base aérienne 113 Saint-Dizier-Robinson

latitude: 48-38N, longitude: 004-54E, altitude: 139 m

Observation

Le bulletin a été fait il y a 38 minutes, à 07:30 UTC
Vent 5 kt de ouest, variant entre sud-ouest et ouest/nord-ouest
Température 10°C
Humidité 87%
Pression 1023 hPa
Visibilité 10 km ou plus
Ciel couvert à une hauteur de 600 ft

METAR: LFSI 230730Z AUTO 26005KT 230V290 9999 OVC006 10/08 Q1023

Heure: 10:08 (08:08 UTC)

Prévision

Le bulletin a été fait il y a 6 heures et 8 minutes, à 02:00 UTC
Prévision valable du 23 à 03 UTC au 24 à 03 UTC
Vent 10 kt de ouest/sud-ouest
Visibilité 10 km ou plus
Nuages fragmentés à une hauteur de 1200 ft
Temporairement
du 23 à 03 UTC au 23 à 18 UTC
Visibilité: 4000 m
Nuages fragmentés à une hauteur de 600 ft
pluie

TAF: LFSI 230200Z 2303/2403 25010KT 9999 BKN012 TEMPO 2303/2318 4000 RA BKN006

Observations et prévisions météorologiques de plus de 4000 aéroports (messages METAR et TAF).

Les stations disponibles sont représentées par des disques jaunes et rouges sur la carte.

Passer la souris dessus pour voir le nom de la station.

Cliquer dessus pour voir les observations et prévisions météorologiques.

Pour changer de carte: cliquez sur les boutons verts avec une croix noire pour zoomer, sur le bouton vert avec un tiret pour effectuer un zoom arrière, ou sur les flèches vertes pour les cartes adjacentes.


METAR-TAF: